Time;durP1;ratioP1;P1;durP2;ratioP2;P2;SDS_P1;SDS_P2;PMS_P1;PMS_P2;Temp;Humidity;BMP_temperature;BMP_pressure;BME280_temperature;BME280_humidity;BME280_pressure;Samples;Min_cycle;Max_cycle;Signal;HPM_P1;HPM_P2
2022/04/01 04:02:01;;;;;;;14.13;12.90;;;5.30;99.90;;;;;;5244866;23;20498;-64
2022/04/01 04:04:29;;;;;;;15.33;13.90;;;5.20;99.90;;;;;;4976516;28;20483;-65
2022/04/01 04:06:57;;;;;;;15.07;13.67;;;5.20;99.90;;;;;;4976621;28;20521;-65
2022/04/01 04:09:23;;;;;;;15.03;13.53;;;5.30;99.90;;;;;;4976596;28;20455;-65
2022/04/01 04:11:51;;;;;;;13.70;12.40;;;5.30;99.90;;;;;;4976245;28;20651;-65
2022/04/01 04:14:19;;;;;;;14.97;13.50;;;5.30;99.90;;;;;;4976373;28;20485;-64
2022/04/01 04:16:47;;;;;;;14.80;13.40;;;5.20;99.90;;;;;;4976489;28;20817;-66
2022/04/01 04:19:22;;;;;;;13.43;12.23;;;5.30;99.90;;;;;;4977283;28;20458;-64
2022/04/01 04:21:55;;;;;;;12.67;11.57;;;5.30;99.90;;;;;;4976976;28;20554;-65
2022/04/01 04:24:30;;;;;;;14.00;12.70;;;5.30;99.90;;;;;;4976194;28;20458;-64
2022/04/01 04:27:05;;;;;;;10.73;9.83;;;5.30;99.90;;;;;;4977196;28;20439;-64
2022/04/01 04:29:37;;;;;;;12.00;11.00;;;5.20;99.90;;;;;;4975421;28;20434;-65
2022/04/01 04:32:05;;;;;;;12.10;11.10;;;5.20;99.90;;;;;;4976140;28;20522;-65
2022/04/01 04:34:37;;;;;;;11.40;10.40;;;5.10;99.90;;;;;;4975965;28;20458;-64
2022/04/01 04:37:09;;;;;;;10.60;9.70;;;5.10;99.90;;;;;;4975947;28;20446;-64
2022/04/01 04:39:38;;;;;;;11.40;10.40;;;5.00;99.90;;;;;;4976244;28;20448;-65
2022/04/01 04:42:06;;;;;;;12.43;11.27;;;5.00;99.90;;;;;;4976631;28;20565;-65
2022/04/01 04:44:33;;;;;;;11.20;10.20;;;4.90;99.90;;;;;;4976483;28;20565;-64
2022/04/01 04:47:02;;;;;;;12.30;11.20;;;4.90;99.90;;;;;;4975793;28;20467;-64
2022/04/01 04:49:29;;;;;;;12.17;11.17;;;4.80;99.90;;;;;;4975614;28;20439;-64
2022/04/01 04:51:59;;;;;;;11.90;10.87;;;4.80;99.90;;;;;;4976826;28;20529;-64
2022/04/01 04:54:27;;;;;;;12.57;11.37;;;4.80;99.90;;;;;;4976411;28;20462;-64
2022/04/01 04:56:54;;;;;;;15.20;11.50;;;4.80;99.90;;;;;;4977341;28;20458;-65
2022/04/01 04:59:22;;;;;;;12.30;11.10;;;5.00;99.90;;;;;;4975972;28;20454;-64
2022/04/01 05:01:55;;;;;;;12.17;11.10;;;5.00;99.90;;;;;;4975578;28;20523;-65
2022/04/01 05:04:40;;;;;;;10.87;9.97;;;5.00;99.90;;;;;;4975838;28;20467;-64
2022/04/01 05:07:21;;;;;;;11.63;10.53;;;5.00;99.90;;;;;;4981556;28;20482;-66
2022/04/01 05:09:59;;;;;;;10.90;10.00;;;5.00;99.90;;;;;;4982537;28;20933;-64
2022/04/01 05:12:33;;;;;;;11.60;10.50;;;4.90;99.90;;;;;;4982760;28;20474;-65
2022/04/01 05:15:05;;;;;;;11.53;10.53;;;4.80;99.90;;;;;;4983509;28;20432;-64
2022/04/01 05:17:36;;;;;;;11.50;10.50;;;4.80;99.90;;;;;;4978074;28;20474;-65
2022/04/01 05:20:05;;;;;;;11.50;10.47;;;4.70;99.90;;;;;;4980998;28;20857;-65
2022/04/01 05:22:42;;;;;;;11.83;10.80;;;4.70;99.90;;;;;;4980008;28;20477;-64
2022/04/01 05:25:10;;;;;;;12.30;11.20;;;4.70;99.90;;;;;;4982912;28;20473;-65
2022/04/01 05:27:41;;;;;;;11.80;10.70;;;4.80;99.90;;;;;;4979053;28;20866;-65
2022/04/01 05:30:13;;;;;;;11.33;10.10;;;4.70;99.90;;;;;;4983104;28;20450;-65
2022/04/01 05:32:41;;;;;;;11.03;9.93;;;4.80;99.90;;;;;;4982993;28;20435;-64
2022/04/01 05:35:09;;;;;;;10.60;9.70;;;4.70;99.90;;;;;;4977937;28;20455;-65
2022/04/01 05:37:38;;;;;;;9.90;9.00;;;4.70;99.90;;;;;;4978113;28;20451;-65
2022/04/01 05:40:07;;;;;;;9.77;8.87;;;4.70;99.90;;;;;;4977899;28;20976;-66
2022/04/01 05:42:34;;;;;;;9.30;8.50;;;4.70;99.90;;;;;;4981066;28;20478;-64
2022/04/01 05:45:01;;;;;;;10.83;9.93;;;4.60;99.90;;;;;;4983233;28;20845;-65
2022/04/01 05:47:30;;;;;;;11.40;10.40;;;4.60;99.90;;;;;;4981325;28;20963;-65
2022/04/01 05:49:58;;;;;;;10.23;9.33;;;4.50;99.90;;;;;;4980489;28;20795;-65
2022/04/01 05:52:26;;;;;;;12.13;11.07;;;4.50;99.90;;;;;;4979832;28;20477;-64
2022/04/01 05:54:57;;;;;;;11.87;10.67;;;4.50;99.90;;;;;;4980619;28;20455;-65
2022/04/01 05:57:23;;;;;;;11.33;9.80;;;4.50;99.90;;;;;;4980453;28;20447;-64
2022/04/01 05:59:50;;;;;;;11.33;10.33;;;4.50;99.90;;;;;;4980458;28;20461;-64
2022/04/01 06:02:37;;;;;;;10.60;9.70;;;4.50;99.90;;;;;;4980236;28;20996;-65
2022/04/01 06:05:27;;;;;;;10.70;9.70;;;4.50;99.90;;;;;;4994669;28;20965;-66
2022/04/01 06:08:06;;;;;;;12.70;11.50;;;4.50;99.90;;;;;;4983575;28;20458;-65
2022/04/01 06:10:42;;;;;;;11.97;10.97;;;4.50;99.90;;;;;;4979572;28;20476;-65
2022/04/01 06:13:19;;;;;;;12.57;11.47;;;4.50;99.90;;;;;;4979333;28;20517;-64
2022/04/01 06:15:57;;;;;;;10.80;9.87;;;4.60;99.90;;;;;;4978757;28;20446;-64
2022/04/01 06:18:34;;;;;;;12.30;11.10;;;4.60;99.90;;;;;;4978980;28;20434;-65
2022/04/01 06:21:04;;;;;;;11.87;10.87;;;4.50;99.90;;;;;;4978957;28;20497;-64
2022/04/01 06:23:48;;;;;;;12.93;11.73;;;4.40;99.90;;;;;;4979207;28;20499;-64
2022/04/01 06:26:16;;;;;;;13.97;12.73;;;4.40;99.90;;;;;;4978946;28;20907;-64
2022/04/01 06:28:50;;;;;;;12.57;11.47;;;4.40;99.90;;;;;;4978713;28;20462;-64
2022/04/01 06:31:21;;;;;;;13.80;12.50;;;4.40;99.90;;;;;;4979117;28;20477;-64
2022/04/01 06:33:58;;;;;;;13.20;12.00;;;4.40;99.90;;;;;;4980542;28;20447;-64
2022/04/01 06:36:35;;;;;;;13.50;12.30;;;4.50;99.90;;;;;;4980525;28;20443;-64
2022/04/01 06:39:04;;;;;;;12.93;11.87;;;4.50;99.90;;;;;;4978888;28;20891;-64
2022/04/01 06:41:41;;;;;;;15.23;13.93;;;4.40;99.90;;;;;;4978566;28;20474;-63
2022/04/01 06:44:08;;;;;;;15.03;13.67;;;4.30;99.90;;;;;;4979771;28;20473;-64
2022/04/01 06:46:35;;;;;;;15.97;14.47;;;4.30;99.90;;;;;;4979177;28;20455;-64
2022/04/01 06:49:07;;;;;;;18.90;17.20;;;4.30;99.90;;;;;;4978038;28;20458;-63
2022/04/01 06:51:35;;;;;;;16.70;15.10;;;4.40;99.90;;;;;;4977087;28;20510;-64
2022/04/01 06:54:02;;;;;;;14.97;13.57;;;4.50;99.90;;;;;;4978162;28;20455;-64
2022/04/01 06:56:29;;;;;;;15.70;14.30;;;4.50;99.90;;;;;;4977721;28;20454;-65
2022/04/01 06:58:57;;;;;;;14.53;13.33;;;4.40;99.90;;;;;;4978303;28;20462;-64
2022/04/01 07:01:25;;;;;;;17.33;15.73;;;4.40;99.90;;;;;;4977596;28;20494;-64
2022/04/01 07:03:52;;;;;;;16.97;15.30;;;4.40;99.90;;;;;;4977929;28;20519;-65
2022/04/01 07:06:19;;;;;;;16.50;14.80;;;4.50;99.90;;;;;;4978342;28;20455;-65
2022/04/01 07:08:47;;;;;;;14.30;13.10;;;4.50;99.90;;;;;;4977937;28;20546;-65
2022/04/01 07:11:14;;;;;;;16.07;14.63;;;4.50;99.90;;;;;;4978081;28;20857;-63
2022/04/01 07:13:41;;;;;;;16.93;15.33;;;4.40;99.90;;;;;;4977892;28;20458;-63
2022/04/01 07:16:10;;;;;;;15.53;14.07;;;4.40;99.90;;;;;;4977733;28;20455;-65
2022/04/01 07:18:37;;;;;;;15.33;13.93;;;4.50;99.90;;;;;;4980848;28;20514;-64
2022/04/01 07:21:04;;;;;;;14.80;13.50;;;4.40;99.90;;;;;;4994211;28;20486;-65
2022/04/01 07:23:32;;;;;;;13.23;12.13;;;4.40;99.90;;;;;;4992803;28;20455;-65
2022/04/01 07:25:58;;;;;;;13.43;12.20;;;4.40;99.90;;;;;;4981634;28;20461;-64
2022/04/01 07:28:26;;;;;;;12.17;11.17;;;4.40;99.90;;;;;;4977963;28;20845;-64
2022/04/01 07:30:52;;;;;;;10.10;9.30;;;4.50;99.90;;;;;;4977784;28;20475;-64
2022/04/01 07:33:20;;;;;;;9.87;8.97;;;4.40;99.90;;;;;;4980052;28;20831;-65
2022/04/01 07:35:49;;;;;;;9.60;8.80;;;4.40;99.90;;;;;;4979744;28;20455;-65
2022/04/01 07:38:16;;;;;;;9.20;8.40;;;4.30;99.90;;;;;;4979410;28;20868;-65
2022/04/01 07:40:43;;;;;;;8.70;8.00;;;4.30;99.90;;;;;;4978994;28;20877;-64
2022/04/01 07:43:10;;;;;;;9.43;8.57;;;4.30;99.90;;;;;;4981020;28;20969;-65
2022/04/01 07:45:37;;;;;;;9.27;8.37;;;4.30;99.90;;;;;;4978404;28;20539;-64
2022/04/01 07:48:06;;;;;;;8.33;7.63;;;4.30;99.90;;;;;;4977815;28;20459;-64
2022/04/01 07:50:34;;;;;;;8.07;7.37;;;4.40;99.90;;;;;;4977609;28;20482;-65
2022/04/01 07:53:03;;;;;;;7.77;7.10;;;4.40;99.90;;;;;;4977398;28;20455;-63
2022/04/01 07:55:30;;;;;;;8.27;7.67;;;4.30;99.90;;;;;;4977757;28;20454;-64
2022/04/01 07:57:57;;;;;;;8.40;7.70;;;4.20;99.90;;;;;;4977257;28;20455;-64
2022/04/01 08:00:23;;;;;;;8.30;7.60;;;4.20;99.90;;;;;;4977152;28;20465;-65
2022/04/01 08:02:54;;;;;;;8.80;8.10;;;4.20;99.90;;;;;;4977804;28;20495;-64
2022/04/01 08:05:21;;;;;;;8.70;8.00;;;4.20;99.90;;;;;;4978026;28;20470;-64
2022/04/01 08:07:49;;;;;;;7.57;6.97;;;4.20;99.90;;;;;;4977192;28;20493;-65
2022/04/01 08:10:16;;;;;;;8.33;7.30;;;4.20;99.90;;;;;;4977309;28;20462;-65
2022/04/01 08:12:44;;;;;;;8.57;7.83;;;4.20;99.90;;;;;;4978246;28;20466;-64
2022/04/01 08:15:11;;;;;;;7.47;6.77;;;4.20;99.90;;;;;;4978170;28;20455;-65
2022/04/01 08:17:38;;;;;;;7.37;6.63;;;4.30;99.90;;;;;;4976977;28;20493;-64
2022/04/01 08:20:06;;;;;;;7.00;6.43;;;4.30;99.90;;;;;;4976780;28;20465;-64
2022/04/01 08:22:33;;;;;;;7.10;6.50;;;4.20;99.90;;;;;;4976679;28;20479;-63
2022/04/01 08:25:01;;;;;;;7.20;6.60;;;4.20;99.90;;;;;;4976860;28;20478;-65
2022/04/01 08:27:27;;;;;;;8.17;7.50;;;4.20;99.90;;;;;;4977450;28;20462;-64
2022/04/01 08:29:59;;;;;;;7.67;6.97;;;4.20;99.90;;;;;;4977369;28;20518;-64
2022/04/01 08:32:25;;;;;;;7.97;7.33;;;4.20;99.90;;;;;;4977106;28;20478;-64
2022/04/01 08:34:53;;;;;;;8.07;7.47;;;4.20;99.90;;;;;;4976901;28;20451;-64
2022/04/01 08:37:19;;;;;;;8.87;8.17;;;4.10;99.90;;;;;;4976814;28;20458;-65
2022/04/01 08:39:47;;;;;;;9.17;8.37;;;4.10;99.90;;;;;;4977144;28;20459;-64
2022/04/01 08:42:15;;;;;;;10.67;9.77;;;4.10;99.90;;;;;;4980463;28;20471;-64
2022/04/01 08:44:46;;;;;;;10.83;9.83;;;4.00;99.90;;;;;;4981605;28;20563;-64
2022/04/01 08:47:14;;;;;;;9.43;8.67;;;4.00;99.90;;;;;;4981060;28;20507;-64
2022/04/01 08:49:40;;;;;;;9.40;8.60;;;4.00;99.90;;;;;;4979618;28;20459;-64
2022/04/01 08:52:08;;;;;;;9.90;9.00;;;4.00;99.90;;;;;;4979414;28;20503;-64
2022/04/01 08:54:35;;;;;;;8.53;7.83;;;4.00;99.90;;;;;;4978497;28;20459;-64
2022/04/01 08:57:04;;;;;;;9.70;8.90;;;4.00;99.90;;;;;;4978574;28;20893;-65
2022/04/01 08:59:33;;;;;;;9.63;8.83;;;4.00;99.90;;;;;;4979169;28;20455;-64
2022/04/01 09:02:04;;;;;;;10.60;9.60;;;4.00;99.90;;;;;;4978332;28;20487;-64
2022/04/01 09:04:32;;;;;;;9.90;9.00;;;4.00;99.90;;;;;;4978916;28;20471;-65
2022/04/01 09:07:10;;;;;;;9.23;8.47;;;3.90;99.90;;;;;;4978726;28;20459;-64
2022/04/01 09:09:37;;;;;;;9.87;8.97;;;4.00;99.90;;;;;;4978819;28;20432;-64
2022/04/01 09:12:05;;;;;;;10.10;9.20;;;4.00;99.90;;;;;;4978363;28;20479;-64
2022/04/01 09:14:33;;;;;;;9.20;8.40;;;4.00;99.90;;;;;;4976011;28;20455;-64
2022/04/01 09:17:01;;;;;;;10.23;9.33;;;4.10;99.90;;;;;;4975932;28;20980;-64
2022/04/01 09:19:32;;;;;;;9.57;8.77;;;4.00;99.90;;;;;;4976185;28;20498;-65
2022/04/01 09:22:14;;;;;;;9.73;8.90;;;4.00;99.90;;;;;;4975677;28;20533;-64
2022/04/01 09:24:56;;;;;;;10.20;9.30;;;4.00;99.90;;;;;;4975876;28;20475;-64
2022/04/01 09:27:42;;;;;;;9.30;8.63;;;4.10;99.90;;;;;;4975630;28;20818;-65
2022/04/01 09:30:12;;;;;;;9.47;8.77;;;4.10;99.90;;;;;;4975502;28;20502;-64
2022/04/01 09:32:40;;;;;;;10.10;9.10;;;4.00;99.90;;;;;;4975570;28;20462;-63
2022/04/01 09:35:10;;;;;;;10.43;9.53;;;4.00;99.90;;;;;;4975687;28;20458;-64
2022/04/01 09:37:38;;;;;;;10.50;9.70;;;4.00;99.90;;;;;;4975952;28;20449;-64
2022/04/01 09:40:07;;;;;;;9.10;8.40;;;3.90;99.90;;;;;;4975519;28;20466;-65
2022/04/01 09:42:33;;;;;;;9.13;8.43;;;4.00;99.90;;;;;;4975165;28;20481;-64
2022/04/01 09:45:02;;;;;;;9.87;9.07;;;4.00;99.90;;;;;;4974861;28;21031;-64
2022/04/01 09:47:35;;;;;;;9.20;8.43;;;4.00;99.90;;;;;;4974976;28;20454;-65
2022/04/01 09:50:04;;;;;;;11.07;10.07;;;4.00;99.90;;;;;;4975020;28;20470;-64
2022/04/01 09:52:36;;;;;;;9.70;8.80;;;4.10;99.90;;;;;;4975036;28;20908;-65
2022/04/01 09:55:04;;;;;;;8.37;7.77;;;4.10;99.90;;;;;;4975277;28;20534;-65
2022/04/01 09:57:33;;;;;;;8.33;7.73;;;4.00;99.90;;;;;;4975161;28;20456;-63
2022/04/01 10:00:00;;;;;;;8.57;7.77;;;4.00;99.90;;;;;;4975037;28;20454;-65
2022/04/01 10:02:29;;;;;;;7.97;7.37;;;4.00;99.90;;;;;;4974458;28;20565;-66
2022/04/01 10:04:58;;;;;;;6.83;6.33;;;4.10;99.90;;;;;;4974814;28;20569;-66
2022/04/01 10:07:27;;;;;;;7.43;6.83;;;4.20;99.90;;;;;;4975060;28;20529;-64
2022/04/01 10:09:55;;;;;;;6.17;5.77;;;4.20;99.90;;;;;;4974725;28;20458;-65
2022/04/01 10:12:26;;;;;;;6.53;6.10;;;4.20;99.90;;;;;;4975333;28;20927;-64
2022/04/01 10:14:58;;;;;;;7.73;7.13;;;4.20;99.90;;;;;;4975866;28;20435;-65
2022/04/01 10:17:29;;;;;;;6.13;5.73;;;4.10;99.90;;;;;;4975078;28;20918;-64
2022/04/01 10:19:59;;;;;;;7.30;6.80;;;4.20;99.90;;;;;;4975840;28;20474;-64
2022/04/01 10:22:27;;;;;;;7.50;7.00;;;4.20;99.90;;;;;;4975383;28;20513;-64
2022/04/01 10:25:01;;;;;;;8.17;7.57;;;4.20;99.90;;;;;;4975534;28;20877;-64
2022/04/01 10:27:37;;;;;;;8.43;7.87;;;4.20;99.90;;;;;;4977138;28;20933;-64
2022/04/01 10:30:04;;;;;;;9.10;8.30;;;4.30;99.90;;;;;;4980134;28;20486;-63
2022/04/01 10:32:38;;;;;;;7.60;7.10;;;4.40;99.90;;;;;;4979269;28;20881;-65
2022/04/01 10:35:08;;;;;;;8.37;7.77;;;4.40;99.90;;;;;;4979266;28;20442;-64
2022/04/01 10:37:36;;;;;;;7.40;6.90;;;4.40;99.90;;;;;;4979319;28;20933;-64
2022/04/01 10:40:08;;;;;;;7.93;7.33;;;4.40;99.90;;;;;;4978598;28;20455;-64
2022/04/01 10:42:37;;;;;;;7.47;6.97;;;4.40;99.90;;;;;;4977989;28;20482;-64
2022/04/01 10:45:08;;;;;;;8.53;7.87;;;4.40;99.90;;;;;;4978142;28;20545;-64
2022/04/01 10:53:35;;;;;;;8.10;7.50;;;4.30;99.90;;;;;;4978186;28;20418;-64
2022/04/01 10:56:28;;;;;;;7.60;7.10;;;4.30;99.90;;;;;;4978176;28;20454;-66
2022/04/01 10:59:19;;;;;;;6.03;5.63;;;4.30;99.90;;;;;;4978565;28;20801;-65
2022/04/01 11:02:04;;;;;;;7.30;6.80;;;4.30;99.90;;;;;;4963636;28;20514;-65
2022/04/01 11:04:35;;;;;;;7.23;6.63;;;4.20;99.90;;;;;;4978399;28;20447;-65
2022/04/01 11:07:05;;;;;;;6.40;6.00;;;4.20;99.90;;;;;;4978463;28;20452;-64
2022/04/01 11:09:54;;;;;;;6.73;6.23;;;4.20;99.90;;;;;;4978688;28;20567;-64
2022/04/01 11:12:41;;;;;;;7.10;6.60;;;4.10;99.90;;;;;;4977304;28;20529;-64
2022/04/01 11:15:17;;;;;;;8.30;7.70;;;4.10;99.90;;;;;;4977188;28;20494;-65
2022/04/01 11:18:10;;;;;;;7.83;7.23;;;4.10;99.90;;;;;;4977372;28;20446;-65
2022/04/01 11:20:39;;;;;;;8.13;7.53;;;4.20;99.90;;;;;;4979158;28;20534;-64
2022/04/01 11:23:12;;;;;;;8.73;8.13;;;4.10;99.90;;;;;;4976902;28;20514;-65
2022/04/01 11:25:54;;;;;;;8.00;7.40;;;4.20;99.90;;;;;;4977926;28;20475;-66
2022/04/01 11:28:22;;;;;;;8.77;7.87;;;4.20;99.90;;;;;;4978275;28;20435;-64
2022/04/01 11:31:09;;;;;;;6.77;6.37;;;4.20;99.90;;;;;;4977795;28;20474;-64
2022/04/01 11:33:36;;;;;;;7.70;7.20;;;4.30;99.90;;;;;;4977483;28;20447;-64
2022/04/01 11:36:04;;;;;;;7.37;6.87;;;4.10;99.90;;;;;;4976873;28;20490;-65
2022/04/01 11:38:32;;;;;;;9.40;8.70;;;4.10;99.90;;;;;;4976707;28;20493;-65
2022/04/01 11:41:03;;;;;;;9.23;8.53;;;4.00;99.90;;;;;;4976801;28;20475;-65
2022/04/01 11:43:31;;;;;;;7.40;6.90;;;4.00;99.90;;;;;;4976473;28;20910;-66
2022/04/01 11:46:03;;;;;;;9.17;8.27;;;4.00;99.90;;;;;;4976569;28;20483;-65
2022/04/01 11:48:32;;;;;;;8.60;8.00;;;3.90;99.90;;;;;;4976734;28;20439;-65
2022/04/01 11:51:00;;;;;;;9.97;9.23;;;3.90;99.90;;;;;;4976869;28;20474;-64
2022/04/01 11:53:30;;;;;;;9.70;9.00;;;3.90;99.90;;;;;;4977577;28;20459;-63
2022/04/01 11:56:00;;;;;;;10.40;9.40;;;4.00;99.90;;;;;;4978276;28;20537;-64
2022/04/01 11:58:28;;;;;;;10.10;9.30;;;4.00;99.90;;;;;;4976792;28;20493;-65
2022/04/01 12:00:55;;;;;;;9.40;8.67;;;4.10;99.90;;;;;;4977749;28;20483;-64
2022/04/01 12:03:21;;;;;;;9.40;8.70;;;4.10;99.90;;;;;;4985419;28;20950;-63
2022/04/01 12:08:41;;;;;;;9.73;8.97;;;4.10;99.90;;;;;;4986775;28;20551;-63
2022/04/01 12:08:41;;;;;;;10.43;9.47;;;4.10;99.90;;;;;;4980498;28;20467;-65
2022/04/01 12:11:09;;;;;;;10.47;9.67;;;4.10;99.90;;;;;;4980038;28;20565;-64
2022/04/01 12:13:47;;;;;;;9.37;8.60;;;4.10;99.90;;;;;;4978654;28;20900;-64
2022/04/01 12:16:14;;;;;;;11.40;10.40;;;4.10;99.90;;;;;;4979010;28;20435;-63
2022/04/01 12:18:46;;;;;;;10.63;9.83;;;4.10;99.90;;;;;;4978510;28;20926;-64
2022/04/01 12:21:16;;;;;;;11.03;10.17;;;4.00;99.90;;;;;;4977648;28;20478;-63
2022/04/01 12:23:45;;;;;;;11.60;10.60;;;4.00;99.90;;;;;;4978133;28;20446;-63
2022/04/01 12:26:14;;;;;;;12.20;11.10;;;4.10;99.90;;;;;;4977752;28;20487;-64
2022/04/01 12:28:42;;;;;;;10.20;9.30;;;4.00;99.90;;;;;;4977488;28;20466;-63
2022/04/01 12:31:17;;;;;;;10.00;9.23;;;4.10;99.90;;;;;;4976868;28;20919;-62
2022/04/01 12:33:48;;;;;;;11.70;10.70;;;4.00;99.90;;;;;;4977483;28;20933;-64
2022/04/01 12:36:15;;;;;;;11.20;10.30;;;3.90;99.90;;;;;;4978769;28;20467;-64
2022/04/01 12:38:44;;;;;;;11.33;10.33;;;3.80;99.90;;;;;;4976971;28;20455;-64
2022/04/01 12:41:18;;;;;;;12.27;11.27;;;3.70;99.90;;;;;;4976381;28;20537;-64
2022/04/01 12:43:47;;;;;;;12.63;11.63;;;3.70;99.90;;;;;;4977121;28;20447;-64
2022/04/01 12:46:15;;;;;;;12.17;11.27;;;3.70;99.90;;;;;;4978443;28;21025;-66
2022/04/01 12:48:45;;;;;;;12.77;11.70;;;3.70;99.90;;;;;;4976745;28;20466;-64
2022/04/01 12:51:17;;;;;;;12.00;11.00;;;3.60;99.90;;;;;;4975830;28;20475;-64
2022/04/01 12:53:56;;;;;;;12.90;11.80;;;3.50;99.90;;;;;;4977557;28;20443;-65
2022/04/01 12:56:27;;;;;;;13.70;12.60;;;3.50;99.90;;;;;;4976776;28;20462;-63
2022/04/01 12:58:55;;;;;;;14.80;13.60;;;3.50;99.90;;;;;;4977338;28;20454;-64
2022/04/01 13:01:24;;;;;;;15.17;13.80;;;3.50;99.90;;;;;;4978705;28;20490;-63
2022/04/01 13:03:51;;;;;;;16.00;14.70;;;3.40;99.90;;;;;;4976650;28;20462;-63
2022/04/01 13:06:18;;;;;;;14.63;13.43;;;3.50;99.90;;;;;;4976022;28;20478;-63
2022/04/01 13:08:45;;;;;;;15.20;14.00;;;3.60;99.90;;;;;;4976143;28;20497;-63
2022/04/01 13:11:13;;;;;;;14.70;13.50;;;3.70;99.90;;;;;;4975937;28;20482;-63
2022/04/01 13:13:42;;;;;;;14.57;13.40;;;3.70;99.90;;;;;;4976233;28;20455;-63
2022/04/01 13:16:09;;;;;;;15.67;14.43;;;3.70;99.90;;;;;;4976099;28;20531;-64
2022/04/01 13:18:36;;;;;;;16.37;15.07;;;3.70;99.90;;;;;;4976743;28;20550;-64
2022/04/01 13:21:03;;;;;;;16.63;15.23;;;3.60;99.90;;;;;;4976706;28;20479;-63
2022/04/01 13:23:31;;;;;;;15.60;14.30;;;3.70;99.90;;;;;;4976237;28;20466;-63
2022/04/01 13:25:58;;;;;;;15.87;14.67;;;3.60;99.90;;;;;;4976269;28;20482;-63
2022/04/01 13:28:25;;;;;;;16.50;15.20;;;3.70;99.90;;;;;;4976038;28;20587;-63
2022/04/01 13:30:53;;;;;;;16.50;14.90;;;3.70;99.90;;;;;;4975976;28;20478;-63
2022/04/01 13:33:20;;;;;;;17.33;15.83;;;3.70;99.90;;;;;;4975676;28;20497;-63
2022/04/01 13:35:46;;;;;;;16.73;15.33;;;3.70;99.90;;;;;;4975889;28;20490;-63
2022/04/01 13:38:13;;;;;;;18.27;16.57;;;3.60;99.90;;;;;;4975101;28;20458;-63
2022/04/01 13:40:40;;;;;;;17.67;16.27;;;3.50;99.90;;;;;;4975494;28;20482;-64
2022/04/01 13:43:07;;;;;;;18.67;16.80;;;3.50;99.90;;;;;;4976212;28;20470;-65
2022/04/01 13:45:37;;;;;;;19.33;17.73;;;3.70;99.90;;;;;;4976336;28;21009;-63
2022/04/01 13:48:06;;;;;;;18.23;16.73;;;3.80;99.90;;;;;;4976301;28;20443;-63
2022/04/01 13:50:34;;;;;;;19.10;17.27;;;3.90;99.90;;;;;;4975621;28;20455;-63
2022/04/01 13:53:01;;;;;;;17.20;15.70;;;3.90;99.90;;;;;;4975613;28;20459;-63
2022/04/01 13:55:28;;;;;;;17.80;16.20;;;3.80;99.90;;;;;;4975762;28;20466;-63
2022/04/01 13:57:54;;;;;;;18.33;16.73;;;3.70;99.90;;;;;;4975939;28;20463;-64
2022/04/01 14:00:21;;;;;;;17.27;15.87;;;3.70;99.90;;;;;;4975239;28;20455;-64
2022/04/01 14:02:48;;;;;;;18.47;16.87;;;3.70;99.90;;;;;;4978834;28;20496;-64
2022/04/01 14:05:16;;;;;;;19.47;17.87;;;3.70;99.90;;;;;;4979322;28;20490;-63
2022/04/01 14:07:43;;;;;;;16.57;15.17;;;3.80;99.90;;;;;;4978697;28;21005;-64
2022/04/01 14:10:10;;;;;;;17.33;15.93;;;3.80;99.90;;;;;;4979760;28;20463;-64
2022/04/01 14:12:37;;;;;;;18.83;17.23;;;3.70;99.90;;;;;;4979733;28;20474;-62
2022/04/01 14:15:05;;;;;;;17.27;15.87;;;3.70;99.90;;;;;;4979359;28;20869;-63
2022/04/01 14:17:33;;;;;;;18.63;16.90;;;3.70;99.90;;;;;;4979278;28;20451;-65
2022/04/01 14:20:00;;;;;;;19.77;18.07;;;3.60;99.90;;;;;;4978275;28;20562;-63
2022/04/01 14:22:28;;;;;;;20.60;18.83;;;3.60;99.90;;;;;;4978175;28;20895;-62
2022/04/01 14:24:55;;;;;;;19.30;17.70;;;3.50;99.90;;;;;;4978513;28;20953;-63
2022/04/01 14:27:21;;;;;;;20.53;18.60;;;3.40;99.90;;;;;;4978847;28;20866;-63
2022/04/01 14:32:32;;;;;;;21.47;19.47;;;3.40;99.90;;;;;;4979090;28;20492;-63
2022/04/01 14:34:59;;;;;;;21.50;19.70;;;3.40;99.90;;;;;;4978956;28;20466;-64
2022/04/01 14:37:28;;;;;;;20.20;18.50;;;3.50;99.90;;;;;;4979287;28;20506;-64
2022/04/01 14:39:54;;;;;;;22.40;20.40;;;3.40;99.90;;;;;;4979205;28;20459;-63
2022/04/01 14:42:21;;;;;;;22.80;20.80;;;3.40;99.90;;;;;;4978665;28;20499;-64
2022/04/01 14:44:48;;;;;;;23.27;21.23;;;3.40;99.90;;;;;;4979256;28;20455;-64
2022/04/01 14:47:14;;;;;;;22.37;20.47;;;3.30;99.90;;;;;;4978984;28;20490;-63
2022/04/01 14:49:41;;;;;;;22.47;20.57;;;3.30;99.90;;;;;;4978921;28;20842;-64
2022/04/01 14:52:08;;;;;;;22.83;20.63;;;3.50;99.90;;;;;;4978881;28;20486;-63
2022/04/01 14:54:36;;;;;;;21.90;20.00;;;3.60;99.90;;;;;;4978794;28;20459;-64
2022/04/01 14:57:04;;;;;;;21.30;19.30;;;3.60;99.90;;;;;;4978485;28;20454;-64
2022/04/01 14:59:31;;;;;;;19.70;18.00;;;3.70;99.90;;;;;;4978536;28;20795;-63
2022/04/01 15:01:58;;;;;;;20.60;18.90;;;3.60;99.90;;;;;;4977767;28;20493;-64
2022/04/01 15:04:25;;;;;;;21.47;19.57;;;3.50;99.90;;;;;;4978615;28;20461;-64
2022/04/01 15:06:52;;;;;;;22.10;20.10;;;3.40;99.90;;;;;;4978755;28;20483;-64
2022/04/01 15:09:20;;;;;;;21.40;19.40;;;3.30;99.90;;;;;;4978976;28;20461;-64
2022/04/01 15:11:48;;;;;;;23.37;21.40;;;3.10;99.90;;;;;;4979007;28;20506;-65
2022/04/01 15:14:15;;;;;;;25.17;22.90;;;3.10;99.90;;;;;;4977674;28;20465;-65
2022/04/01 15:16:42;;;;;;;22.07;20.10;;;3.10;99.90;;;;;;4978206;28;20458;-64
2022/04/01 15:19:09;;;;;;;22.00;20.10;;;3.20;99.90;;;;;;4977514;28;20494;-65
2022/04/01 15:21:36;;;;;;;22.20;20.30;;;3.20;99.90;;;;;;4977781;28;20483;-64
2022/04/01 15:24:04;;;;;;;22.07;20.00;;;3.30;99.90;;;;;;4978668;28;20546;-64
2022/04/01 15:26:31;;;;;;;21.50;19.50;;;3.30;99.90;;;;;;4979129;28;20518;-64
2022/04/01 15:28:59;;;;;;;22.53;20.57;;;3.30;99.90;;;;;;4978901;28;20518;-64
2022/04/01 15:31:26;;;;;;;23.47;21.37;;;3.20;99.90;;;;;;4979226;28;20878;-65
2022/04/01 15:33:54;;;;;;;21.60;19.70;;;3.20;99.90;;;;;;4979634;28;20455;-65
2022/04/01 15:36:22;;;;;;;21.30;19.40;;;3.10;99.90;;;;;;4978430;28;20517;-63
2022/04/01 15:38:52;;;;;;;22.00;20.10;;;3.10;99.90;;;;;;4978030;28;20462;-66
2022/04/01 15:41:20;;;;;;;21.03;19.13;;;3.10;99.90;;;;;;4977528;28;20555;-64
2022/04/01 15:43:49;;;;;;;21.63;19.80;;;3.00;99.90;;;;;;4977176;28;20451;-64
2022/04/01 15:46:25;;;;;;;20.23;18.47;;;3.00;99.90;;;;;;4976816;28;20459;-63
2022/04/01 15:48:52;;;;;;;21.03;19.03;;;3.00;99.90;;;;;;4977585;28;20442;-63
2022/04/01 15:51:20;;;;;;;21.40;19.53;;;2.90;99.90;;;;;;4976926;28;20482;-63
2022/04/01 15:53:48;;;;;;;22.20;20.20;;;2.80;99.90;;;;;;4976895;28;20473;-63
2022/04/01 15:56:15;;;;;;;22.83;20.83;;;2.70;99.90;;;;;;4977364;28;20458;-63
2022/04/01 15:58:42;;;;;;;23.00;20.90;;;2.60;99.90;;;;;;4977265;28;20868;-65
2022/04/01 16:01:10;;;;;;;23.63;21.50;;;2.60;99.90;;;;;;4980853;28;20494;-64
2022/04/01 16:03:41;;;;;;;22.37;20.37;;;2.50;99.90;;;;;;4986130;28;20457;-64
2022/04/01 16:06:08;;;;;;;23.53;21.40;;;2.60;99.90;;;;;;4983590;28;20805;-65
2022/04/01 16:08:39;;;;;;;23.50;21.40;;;2.60;99.90;;;;;;4979294;28;20462;-64
2022/04/01 16:11:06;;;;;;;22.63;20.53;;;2.60;99.90;;;;;;4978994;28;20661;-66
2022/04/01 16:13:35;;;;;;;23.30;21.20;;;2.70;99.90;;;;;;4978446;28;20472;-65
2022/04/01 16:16:02;;;;;;;23.33;21.23;;;2.70;99.90;;;;;;4978070;28;20486;-64
2022/04/01 16:18:29;;;;;;;22.80;20.80;;;2.70;99.90;;;;;;4978664;28;20455;-64
2022/04/01 16:20:59;;;;;;;24.40;22.10;;;2.70;99.90;;;;;;4978142;28;20994;-65
2022/04/01 16:23:27;;;;;;;23.37;21.27;;;2.70;99.90;;;;;;4977275;28;20469;-64
2022/04/01 16:25:55;;;;;;;22.97;20.90;;;2.70;99.90;;;;;;4977883;28;20514;-64
2022/04/01 16:28:24;;;;;;;22.80;20.80;;;2.70;99.90;;;;;;4976803;28;20489;-65
2022/04/01 16:30:50;;;;;;;23.17;20.97;;;2.70;99.90;;;;;;4976948;28;20475;-63
2022/04/01 16:33:17;;;;;;;25.07;22.80;;;2.70;99.90;;;;;;4977478;28;20455;-64
2022/04/01 16:35:44;;;;;;;23.90;21.87;;;2.70;99.90;;;;;;4976472;28;20462;-65
2022/04/01 16:38:12;;;;;;;23.53;21.33;;;2.70;99.90;;;;;;4976532;28;20485;-64
2022/04/01 16:40:39;;;;;;;23.73;21.27;;;2.80;99.90;;;;;;4976476;28;20481;-64
2022/04/01 16:43:06;;;;;;;21.00;19.00;;;2.80;99.90;;;;;;4977867;28;20464;-64
2022/04/01 16:45:32;;;;;;;23.83;21.43;;;2.80;99.90;;;;;;4976657;28;20934;-64
2022/04/01 16:47:59;;;;;;;29.50;23.00;;;2.80;99.90;;;;;;4976517;28;20473;-63
2022/04/01 16:50:26;;;;;;;24.30;22.10;;;2.70;99.90;;;;;;4976426;28;20465;-63
2022/04/01 16:52:53;;;;;;;25.33;22.90;;;2.70;99.90;;;;;;4975856;28;20489;-64
2022/04/01 16:55:22;;;;;;;28.87;26.00;;;2.70;99.90;;;;;;4975478;28;20446;-63
2022/04/01 16:57:49;;;;;;;27.07;24.13;;;2.70;99.90;;;;;;4976262;28;20552;-63
2022/04/01 17:00:17;;;;;;;25.43;23.03;;;2.70;99.90;;;;;;4975256;28;20464;-63
2022/04/01 17:02:45;;;;;;;24.03;21.83;;;2.70;99.90;;;;;;4976033;28;20439;-64
2022/04/01 17:05:11;;;;;;;24.57;22.37;;;2.80;99.90;;;;;;4975279;28;20467;-65